Ketrzyn, Poland
Current Conditions -  °F | °C
As of 2:00 AM on Thursday 27 Nov 2014 (Local Time) from UMKK Reporting Station
Light Rain Light Rain  
Wind Chill: 28°   Ceiling: 300
Heat Index: 36°   Visibility: 1.7mi
Dew Point: 34°   Wind: 11mph
Humidity: 93%   Direction: 160°SSE
Pressure: 30.24"   Gusts: NA
Location:  54.08°N, 21.37°E
Report Text: UMKK 270000Z 16005MPS 2800 -RA BR OVC003 02/01 Q1024 R24/29//60NOSIG RMK QBB100 OBST OBSC QFE767/1023
Loading
Personal Weather Stations






























Interactive Weather Map New forecast layout! Learn more

10-Day Weather Forecast

Advertisements
Track Severe Weather on mobile